Latest Weather Observations for Point Perpendicular

IDN60801

Issued at 11:34 am EDT Saturday 28 February 2015 (issued every 30 minutes, with the page automatically refreshed every 10 minutes)

About weather observations | Map of weather stations | Latest weather observations for NSW | Other Formats
Station Details ID: 068151 Name: POINT PERPENDICULAR AWS Lat: -35.09 Lon: 150.80 Height: 85.0 m
Data from the previous 72 hours. | See also: Recent months at Point Perpendicular
Date/Time
EDT
Temp
°C
App
Temp
°C
Dew
Point
Rel
Hum
%
Delta-T
°C
Wind Press
QNH
hPa
Press
MSL
hPa
Rain
since 9 am
mm
Dir
 
Spd
km/h
Gust
km/h
Spd
kts
Gust
kts
28/11:30am 24.7 23.3 18.9 70 3.7 NNE 24 33 13 18 1010.3 1010.0 0.0
28/11:00am 23.0 22.2 19.2 79 2.4 NNE 22 30 12 16 1010.5 1010.2 0.0
28/10:30am 23.9 22.9 19.6 77 2.8 NNE 24 30 13 16 1010.6 1010.3 0.0
28/10:00am 23.2 23.4 20.2 83 1.9 N 19 30 10 16 1010.9 1010.6 0.0
28/09:30am 22.5 23.7 20.0 86 1.6 N 13 22 7 12 1010.8 1010.5 0.0
28/09:00am 21.9 23.7 20.4 91 1.0 NNE 11 17 6 9 1010.6 1010.3 0.0
28/08:30am 20.7 23.0 19.9 95 0.5 N 7 11 4 6 1010.8 1010.5 0.0
28/08:00am 20.4 22.8 20.1 98 0.2 N 7 9 4 5 1010.5 1010.2 0.0
28/07:30am 20.1 22.0 19.8 98 0.2 NNE 9 11 5 6 1010.3 1010.0 0.0
28/07:00am 20.0 23.2 19.7 98 0.2 NNE 2 9 1 5 1010.0 1009.7 0.0
28/06:30am 19.8 23.2 19.3 97 0.3 CALM 0 0 0 0 1009.9 1009.6 0.0
28/06:00am 19.7 23.0 19.2 97 0.3 CALM 0 4 0 2 1009.7 1009.4 0.0
28/05:30am 19.4 21.4 18.7 96 0.4 N 6 7 3 4 1009.5 1009.2 0.0
28/05:00am 19.6 21.5 18.9 96 0.4 N 7 9 4 5 1009.3 1009.0 0.0
28/04:30am 19.4 21.1 18.4 94 0.6 N 7 9 4 5 1009.4 1009.1 0.0
28/04:00am 19.5 20.8 18.5 94 0.6 N 9 11 5 6 1009.5 1009.2 0.0
28/03:30am 20.1 21.7 19.1 94 0.6 N 9 11 5 6 1009.5 1009.2 0.0
28/03:00am 20.2 21.1 19.2 94 0.6 N 13 15 7 8 1009.5 1009.2 0.0
28/02:30am 20.5 21.1 19.5 94 0.6 NNE 15 20 8 11 1009.5 1009.2 0.0
28/02:00am 20.4 21.4 19.4 94 0.6 NNE 13 17 7 9 1010.0 1009.7 0.0
28/01:30am 20.7 22.2 19.7 94 0.6 N 11 15 6 8 1010.1 1009.8 0.0
28/01:00am 20.8 21.7 20.0 95 0.5 NNE 15 20 8 11 1010.2 1009.9 0.0
28/12:30am 20.7 21.9 20.0 96 0.4 NNE 13 20 7 11 1010.4 1010.1 0.0
28/12:00am 20.8 22.8 20.0 95 0.5 NNE 9 13 5 7 1010.8 1010.5 0.0
 
Date/Time
EDT
Temp
°C
App
Temp
°C
Dew
Point
Rel
Hum
%
Delta-T
°C
Wind Press
QNH
hPa
Press
MSL
hPa
Rain
since 9 am
mm
Dir
 
Spd
km/h
Gust
km/h
Spd
kts
Gust
kts
27/11:30pm 21.0 22.6 20.0 94 0.6 N 11 15 6 8 1011.0 1010.7 0.0
27/11:00pm 21.3 22.1 19.9 92 0.9 NNE 15 20 8 11 1011.0 1010.7 0.0
27/10:30pm 21.4 21.3 20.0 92 0.9 NNE 20 26 11 14 1010.9 1010.6 0.0
27/10:00pm 21.4 21.3 19.9 91 1.0 NNE 20 28 11 15 1010.8 1010.5 0.0
27/09:30pm 21.5 21.3 19.8 90 1.1 NNE 20 28 11 15 1010.4 1010.1 0.0
27/09:00pm 21.5 21.2 19.6 89 1.2 NNE 20 30 11 16 1010.3 1010.0 0.0
27/08:30pm 21.6 21.5 19.5 88 1.3 NNE 19 28 10 15 1009.9 1009.6 0.0
27/08:00pm 21.6 21.8 19.3 87 1.5 NNE 17 24 9 13 1009.6 1009.3 0.0
27/07:30pm 22.0 21.6 18.8 82 2.0 NNE 19 28 10 15 1009.2 1008.9 0.0
27/07:00pm 22.7 21.9 18.5 77 2.7 NE 20 28 11 15 1008.8 1008.5 0.0
27/06:30pm 23.2 22.4 17.9 72 3.3 NE 19 28 10 15 1008.9 1008.6 0.0
27/06:00pm 23.7 22.8 17.7 69 3.8 NE 19 28 10 15 1008.9 1008.6 0.0
27/05:30pm 23.9 23.3 17.6 68 3.9 NE 17 24 9 13 1008.7 1008.4 0.0
27/05:00pm 24.2 23.7 17.9 68 4.0 ENE 17 24 9 13 1008.7 1008.4 0.0
27/04:30pm 23.9 23.7 17.6 68 3.9 ENE 15 24 8 13 1008.9 1008.6 0.0
27/04:00pm 24.1 23.5 17.6 67 4.1 E 17 24 9 13 1009.2 1008.9 0.0
27/03:30pm 24.7 24.9 17.7 65 4.4 ENE 13 22 7 12 1009.6 1009.3 0.0
27/03:00pm 24.3 24.1 17.5 66 4.3 E 15 22 8 12 1009.9 1009.6 0.0
27/02:30pm 24.9 25.4 18.3 66 4.2 ENE 13 17 7 9 1010.5 1010.2 0.0
27/02:00pm 24.9 25.7 18.1 66 4.3 E 11 20 6 11 1010.6 1010.3 0.0
27/01:30pm 24.4 24.4 18.1 68 4.0 ENE 15 22 8 12 1010.7 1010.4 0.0
27/01:00pm 24.6 25.2 18.5 69 3.9 E 13 22 7 12 1010.9 1010.6 0.0
27/12:30pm 24.0 24.5 17.5 67 4.1 ESE 11 20 6 11 1011.4 1011.0 0.0
27/12:00pm 23.2 23.6 17.2 69 3.7 ESE 11 20 6 11 1011.4 1011.0 0.0
27/11:30am 22.7 23.1 16.3 67 3.9 SE 9 17 5 9 1011.9 1011.5 0.0
27/11:00am 24.0 24.9 17.5 67 4.1 ESE 9 15 5 8 1011.8 1011.4 0.0
27/10:30am 23.9 24.8 17.6 68 3.9 ESE 9 15 5 8 1011.8 1011.4 0.0
27/10:00am 22.7 23.3 16.9 70 3.6 E 9 13 5 7 1011.8 1011.4 0.0
27/09:30am 22.7 23.9 17.4 72 3.3 ESE 7 11 4 6 1011.8 1011.4 0.0
27/09:00am 22.1 23.2 17.2 74 3.0 ESE 7 13 4 7 1011.6 1011.2 0.0
27/08:30am 21.8 23.0 17.4 76 2.7 ESE 7 11 4 6 1011.3 1010.9 0.0
27/08:00am 21.6 22.7 17.2 76 2.7 SE 7 11 4 6 1011.0 1010.7 0.0
27/07:30am 21.5 22.5 16.9 75 2.8 SE 7 13 4 7 1010.9 1010.6 0.0
27/07:00am 21.4 22.4 17.8 80 2.2 SE 9 15 5 8 1010.6 1010.3 0.0
27/06:30am 21.3 22.2 17.5 79 2.3 SSE 9 17 5 9 1010.2 1009.9 0.0
27/06:00am 21.2 21.3 17.4 79 2.3 SSE 13 22 7 12 1009.9 1009.6 0.0
27/05:30am 21.1 21.1 17.3 79 2.3 SSE 13 20 7 11 1009.5 1009.2 0.0
27/05:00am 21.2 20.7 17.0 77 2.6 SSE 15 24 8 13 1009.5 1009.2 0.0
27/04:30am 21.2 20.9 17.4 79 2.3 SSE 15 24 8 13 1009.3 1009.0 0.0
27/04:00am 21.3 20.7 17.5 79 2.4 SSE 17 24 9 13 1009.4 1009.1 0.0
27/03:30am 21.5 21.2 17.3 77 2.6 SSE 15 24 8 13 1009.5 1009.2 0.0
27/03:00am 21.5 20.3 17.1 76 2.7 SSE 19 28 10 15 1009.4 1009.1 0.0
27/02:30am 21.7 21.2 17.9 79 2.4 SSE 17 26 9 14 1009.4 1009.1 0.0
27/02:00am 22.1 21.6 17.9 77 2.6 SE 17 26 9 14 1009.3 1009.0 0.0
27/01:30am 21.9 22.7 19.1 84 1.8 SSE 13 22 7 12 1009.8 1009.5 0.0
27/01:00am 21.4 23.3 19.0 86 1.5 SSW 7 13 4 7 1010.3 1010.0 0.0
27/12:30am 21.3 22.9 19.2 88 1.3 S 9 13 5 7 1010.2 1009.9 0.0
27/12:00am 21.3 23.2 19.8 91 1.0 SSW 9 13 5 7 1010.0 1009.7 0.0
 
Date/Time
EDT
Temp
°C
App
Temp
°C
Dew
Point
Rel
Hum
%
Delta-T
°C
Wind Press
QNH
hPa
Press
MSL
hPa
Rain
since 9 am
mm
Dir
 
Spd
km/h
Gust
km/h
Spd
kts
Gust
kts
26/11:30pm 21.1 22.2 19.6 91 1.0 SSW 13 20 7 11 1010.1 1009.8 0.0
26/11:00pm 21.4 23.4 20.0 92 0.9 SSW 9 15 5 8 1010.3 1010.0 0.0
26/10:30pm 20.7 22.7 19.9 95 0.5 SSW 9 15 5 8 1010.6 1010.3 0.0
26/10:00pm 21.4 23.9 19.9 91 1.0 SW 6 7 3 4 1010.7 1010.4 0.0
26/09:30pm 21.3 23.9 20.1 93 0.8 SW 6 9 3 5 1010.4 1010.1 0.0
26/09:00pm 21.3 23.6 19.9 92 0.9 WSW 7 9 4 5 1010.0 1009.7 0.0
26/08:30pm 21.6 24.2 20.1 91 1.0 N 6 7 3 4 1009.2 1008.9 0.0
26/08:00pm 21.5 23.8 19.8 90 1.1 NE 7 9 4 5 1008.6 1008.3 0.0
26/07:30pm 21.8 24.1 19.9 89 1.2 NNE 7 11 4 6 1007.9 1007.6 0.0
26/07:00pm 21.8 25.0 19.7 88 1.3 NNE 2 7 1 4 1007.6 1007.3 0.0
26/06:30pm 22.0 24.2 19.7 87 1.5 NNE 7 13 4 7 1007.5 1007.2 0.0
26/06:00pm 22.2 23.5 19.4 84 1.8 NE 11 15 6 8 1007.1 1006.8 0.0
26/05:30pm 23.5 23.4 19.6 79 2.5 NNE 19 26 10 14 1006.5 1006.2 0.0
26/05:00pm 23.2 24.0 19.8 81 2.2 NE 15 22 8 12 1006.5 1006.2 0.0
26/04:30pm 23.3 24.0 19.7 80 2.3 NNE 15 24 8 13 1006.6 1006.3 0.0
26/04:00pm 23.4 24.0 19.5 79 2.5 NNE 15 24 8 13 1006.8 1006.5 0.0
26/03:30pm 23.5 23.3 19.4 78 2.6 NNE 19 26 10 14 1006.9 1006.6 0.0
26/03:00pm 23.5 22.8 19.4 78 2.6 NNE 22 30 12 16 1007.1 1006.8 0.0
26/02:30pm 23.1 22.2 19.1 78 2.5 NNE 22 32 12 17 1007.3 1007.0 0.0
26/02:00pm 23.7 23.1 18.8 74 3.1 N 20 28 11 15 1007.7 1007.4 0.0
26/01:30pm 24.2 23.4 18.4 70 3.7 N 20 33 11 18 1007.9 1007.6 0.0
26/01:00pm 23.7 22.9 18.4 72 3.4 N 20 30 11 16 1008.4 1008.1 0.0
26/12:30pm 23.7 22.9 18.1 71 3.5 N 19 28 10 15 1008.9 1008.6 0.0
26/12:00pm 23.9 22.6 18.1 70 3.7 NNE 22 32 12 17 1009.3 1009.0 0.0
26/11:30am 22.7 21.0 18.0 75 2.9 N 24 35 13 19 1009.6 1009.3 0.0
26/11:00am 21.3 20.1 17.5 79 2.3 N 20 30 11 16 1009.9 1009.6 0.0
26/10:30am 21.9 20.5 17.1 74 3.0 NNE 20 30 11 16 1010.0 1009.7 0.0
26/10:00am 22.9 23.1 17.6 72 3.3 N 13 24 7 13 1010.0 1009.7 0.0
26/09:30am 20.5 20.7 16.7 79 2.3 N 11 15 6 8 1010.2 1009.9 0.0
26/09:00am 19.3 20.0 16.2 82 1.9 NNW 7 11 4 6 1010.4 1010.1 1.4
26/08:30am 19.2 19.9 16.1 82 1.9 NW 7 9 4 5 1010.4 1010.1 1.4
26/08:00am 18.9 19.7 16.3 85 1.6 NNW 7 13 4 7 1010.3 1010.0 1.4
26/07:30am 18.2 19.1 16.5 90 1.0 WNW 7 9 4 5 1010.6 1010.3 1.4
26/07:00am 18.1 18.9 16.3 89 1.1 WNW 7 9 4 5 1010.5 1010.2 1.4
26/06:30am 18.2 19.2 16.4 89 1.1 WNW 6 9 3 5 1010.3 1010.0 1.4
26/06:00am 18.0 19.3 16.2 89 1.1 WNW 4 7 2 4 1010.2 1009.9 1.4
26/05:30am 18.0 18.9 16.0 88 1.2 WNW 6 7 3 4 1010.2 1009.9 1.4
26/05:00am 17.8 18.4 15.8 88 1.2 WNW 7 9 4 5 1010.4 1010.1 1.4
26/04:30am 17.9 19.1 15.9 88 1.2 WNW 4 6 2 3 1010.6 1010.3 1.4
26/04:00am 18.2 19.0 15.8 86 1.4 WSW 6 7 3 4 1011.0 1010.7 1.4
26/03:30am 18.1 18.8 15.7 86 1.4 W 6 7 3 4 1011.3 1010.9 1.4
26/03:00am 18.1 18.9 15.9 87 1.3 W 6 7 3 4 1011.7 1011.3 1.4
26/02:30am 18.3 19.0 15.6 84 1.6 WSW 6 9 3 5 1012.2 1011.8 1.4
26/02:00am 18.0 18.7 16.0 88 1.2 W 7 9 4 5 1012.3 1011.9 1.4
26/01:30am 18.1 19.0 16.1 88 1.2 W 6 7 3 4 1012.9 1012.5 1.4
26/01:00am 18.0 18.8 15.8 87 1.3 WSW 6 7 3 4 1013.1 1012.7 1.4
26/12:30am 18.0 18.7 16.0 88 1.2 WSW 7 9 4 5 1013.4 1013.1 1.4
26/12:00am 18.0 18.9 16.5 91 0.9 WSW 7 11 4 6 1013.7 1013.4 1.4
 
Date/Time
EDT
Temp
°C
App
Temp
°C
Dew
Point
Rel
Hum
%
Delta-T
°C
Wind Press
QNH
hPa
Press
MSL
hPa
Rain
since 9 am
mm
Dir
 
Spd
km/h
Gust
km/h
Spd
kts
Gust
kts
25/11:30pm 17.9 18.3 16.2 90 1.0 WSW 9 13 5 7 1013.9 1013.6 1.4
25/11:00pm 18.1 18.7 15.9 87 1.3 WSW 7 11 4 6 1014.1 1013.8 1.4
25/10:30pm 18.2 18.6 16.2 88 1.2 WSW 9 13 5 7 1014.4 1014.1 1.4
25/10:00pm 18.2 18.6 16.2 88 1.2 SW 9 13 5 7 1014.4 1014.1 1.4
25/09:30pm 18.5 18.8 16.1 86 1.4 WSW 9 13 5 7 1014.5 1014.2 1.4
25/09:00pm 18.7 19.3 15.8 83 1.7 WSW 7 9 4 5 1014.8 1014.5 1.4
25/08:30pm 18.9 19.3 15.4 80 2.1 WSW 7 9 4 5 1015.0 1014.7 1.4
25/08:00pm 19.5 20.4 15.0 75 2.6 WSW 4 7 2 4 1015.1 1014.8 1.4
25/07:30pm 19.6 20.8 15.0 75 2.7 WSW 2 6 1 3 1015.4 1015.1 1.4
25/07:00pm 20.5 21.1 14.2 67 3.7 SE 4 13 2 7 1015.2 1014.9 1.4
25/06:30pm 19.8 20.2 14.8 73 2.9 SW 6 7 3 4 1015.4 1015.1 1.4
25/06:00pm 19.3 19.7 15.4 78 2.3 SW 7 13 4 7 1015.5 1015.2 1.4
25/05:30pm 19.4 18.6 15.1 76 2.5 S 13 28 7 15 1015.4 1015.1 1.4
25/05:00pm 20.5 20.0 13.7 65 3.9 SSE 9 15 5 8 1015.4 1015.1 1.4
25/04:30pm 20.4 19.6 14.1 67 3.7 SSE 11 17 6 9 1015.5 1015.2 1.4
25/04:00pm 20.6 20.3 14.3 67 3.7 SE 9 17 5 9 1015.7 1015.4 1.4
25/03:30pm 20.7 20.2 14.8 69 3.5 SSE 11 17 6 9 1015.9 1015.6 1.4
25/03:00pm 20.5 19.9 14.6 69 3.5 SE 11 22 6 12 1016.3 1016.0 1.4
25/02:30pm 20.6 19.6 14.7 69 3.5 SE 13 30 7 16 1016.5 1016.2 1.4
25/02:00pm 20.7 19.8 14.8 69 3.5 SSE 13 20 7 11 1017.1 1016.8 1.4
25/01:30pm 19.2 19.0 16.8 86 1.5 SW 13 20 7 11 1017.5 1017.2 1.4
25/01:00pm 18.5 17.6 16.8 90 1.0 SW 17 24 9 13 1017.9 1017.6 1.4
25/12:30pm 18.3 18.2 17.0 92 0.8 SW 13 24 7 13 1018.0 1017.7 1.4
25/12:00pm 18.6 18.4 16.8 89 1.1 WSW 13 17 7 9 1018.2 1017.9 1.4

Other Formats:

Comma delimited format used in spreadsheet applications
http://www.bom.gov.au/fwo/IDN60801/IDN60801.95940.axf

JavaScript Object Notation format (JSON) in row-major order
http://www.bom.gov.au/fwo/IDN60801/IDN60801.95940.json